sensor_id;sensor_type;location;lat;lon;timestamp;temperature;humidity
46159;DHT22;31888;44.512;26.104;2023-08-31T00:00:30;20.60;99.90
46159;DHT22;31888;44.512;26.104;2023-08-31T00:02:56;20.70;99.90
46159;DHT22;31888;44.512;26.104;2023-08-31T00:05:20;20.70;99.90
46159;DHT22;31888;44.512;26.104;2023-08-31T00:07:44;20.80;99.90
46159;DHT22;31888;44.512;26.104;2023-08-31T00:10:09;20.90;99.90
46159;DHT22;31888;44.512;26.104;2023-08-31T00:12:34;20.90;99.90
46159;DHT22;31888;44.512;26.104;2023-08-31T00:14:58;20.90;99.90
46159;DHT22;31888;44.512;26.104;2023-08-31T00:17:24;20.90;99.90
46159;DHT22;31888;44.512;26.104;2023-08-31T00:19:48;21.00;99.90
46159;DHT22;31888;44.512;26.104;2023-08-31T00:22:12;21.00;99.90
46159;DHT22;31888;44.512;26.104;2023-08-31T00:24:36;20.90;99.90
46159;DHT22;31888;44.512;26.104;2023-08-31T00:27:00;20.90;99.90
46159;DHT22;31888;44.512;26.104;2023-08-31T00:29:26;20.90;99.90
46159;DHT22;31888;44.512;26.104;2023-08-31T00:31:50;21.00;99.90
46159;DHT22;31888;44.512;26.104;2023-08-31T00:34:17;20.90;99.90
46159;DHT22;31888;44.512;26.104;2023-08-31T00:36:41;20.90;99.90
46159;DHT22;31888;44.512;26.104;2023-08-31T00:39:06;20.90;99.90
46159;DHT22;31888;44.512;26.104;2023-08-31T00:41:34;20.90;99.90
46159;DHT22;31888;44.512;26.104;2023-08-31T00:43:58;20.90;99.90
46159;DHT22;31888;44.512;26.104;2023-08-31T00:46:22;20.80;99.90
46159;DHT22;31888;44.512;26.104;2023-08-31T00:48:46;20.80;99.90
46159;DHT22;31888;44.512;26.104;2023-08-31T00:51:12;20.70;99.90
46159;DHT22;31888;44.512;26.104;2023-08-31T00:53:37;20.70;99.90
46159;DHT22;31888;44.512;26.104;2023-08-31T00:56:01;20.70;99.90
46159;DHT22;31888;44.512;26.104;2023-08-31T00:58:27;20.70;99.90
46159;DHT22;31888;44.512;26.104;2023-08-31T01:01:01;20.70;99.90
46159;DHT22;31888;44.512;26.104;2023-08-31T01:03:35;20.70;99.90
46159;DHT22;31888;44.512;26.104;2023-08-31T01:06:09;20.70;99.90
46159;DHT22;31888;44.512;26.104;2023-08-31T01:08:43;20.70;99.90
46159;DHT22;31888;44.512;26.104;2023-08-31T01:14:01;20.70;99.90
46159;DHT22;31888;44.512;26.104;2023-08-31T01:16:28;20.80;99.90
46159;DHT22;31888;44.512;26.104;2023-08-31T01:18:54;20.80;99.90
46159;DHT22;31888;44.512;26.104;2023-08-31T01:21:23;20.70;99.90
46159;DHT22;31888;44.512;26.104;2023-08-31T01:23:52;20.70;99.90
46159;DHT22;31888;44.512;26.104;2023-08-31T01:26:17;20.70;99.90
46159;DHT22;31888;44.512;26.104;2023-08-31T01:28:41;20.70;99.90
46159;DHT22;31888;44.512;26.104;2023-08-31T01:31:05;20.80;99.90
46159;DHT22;31888;44.512;26.104;2023-08-31T01:33:29;20.80;99.90
46159;DHT22;31888;44.512;26.104;2023-08-31T01:35:54;20.80;99.90
46159;DHT22;31888;44.512;26.104;2023-08-31T01:38:21;20.80;99.90
46159;DHT22;31888;44.512;26.104;2023-08-31T01:40:55;20.70;99.90
46159;DHT22;31888;44.512;26.104;2023-08-31T01:43:22;20.70;99.90
46159;DHT22;31888;44.512;26.104;2023-08-31T01:45:49;20.70;99.90
46159;DHT22;31888;44.512;26.104;2023-08-31T01:48:14;20.70;99.90
46159;DHT22;31888;44.512;26.104;2023-08-31T01:50:38;20.70;99.90
46159;DHT22;31888;44.512;26.104;2023-08-31T01:53:02;20.60;99.90
46159;DHT22;31888;44.512;26.104;2023-08-31T01:55:26;20.70;99.90
46159;DHT22;31888;44.512;26.104;2023-08-31T01:57:52;20.60;99.90
46159;DHT22;31888;44.512;26.104;2023-08-31T02:00:20;20.60;99.90
46159;DHT22;31888;44.512;26.104;2023-08-31T02:02:44;20.70;99.90
46159;DHT22;31888;44.512;26.104;2023-08-31T02:05:09;20.70;99.90
46159;DHT22;31888;44.512;26.104;2023-08-31T02:07:33;20.70;99.90
46159;DHT22;31888;44.512;26.104;2023-08-31T02:09:57;20.70;99.90
46159;DHT22;31888;44.512;26.104;2023-08-31T02:12:21;20.60;99.90
46159;DHT22;31888;44.512;26.104;2023-08-31T02:14:46;20.50;99.90
46159;DHT22;31888;44.512;26.104;2023-08-31T02:17:10;20.60;99.90
46159;DHT22;31888;44.512;26.104;2023-08-31T02:19:34;20.60;99.90
46159;DHT22;31888;44.512;26.104;2023-08-31T02:21:59;20.70;99.90
46159;DHT22;31888;44.512;26.104;2023-08-31T02:24:23;20.60;99.90
46159;DHT22;31888;44.512;26.104;2023-08-31T02:26:48;20.60;99.90
46159;DHT22;31888;44.512;26.104;2023-08-31T02:29:13;20.70;99.90
46159;DHT22;31888;44.512;26.104;2023-08-31T02:31:38;20.70;99.90
46159;DHT22;31888;44.512;26.104;2023-08-31T02:34:04;20.70;99.90
46159;DHT22;31888;44.512;26.104;2023-08-31T02:36:27;20.70;99.90
46159;DHT22;31888;44.512;26.104;2023-08-31T02:38:51;20.70;99.90
46159;DHT22;31888;44.512;26.104;2023-08-31T02:41:15;20.70;99.90
46159;DHT22;31888;44.512;26.104;2023-08-31T02:43:40;20.70;99.90
46159;DHT22;31888;44.512;26.104;2023-08-31T02:46:05;20.80;99.90
46159;DHT22;31888;44.512;26.104;2023-08-31T02:48:32;20.70;99.90
46159;DHT22;31888;44.512;26.104;2023-08-31T02:50:57;20.60;99.90
46159;DHT22;31888;44.512;26.104;2023-08-31T02:53:23;20.70;99.90
46159;DHT22;31888;44.512;26.104;2023-08-31T02:55:47;20.70;99.90
46159;DHT22;31888;44.512;26.104;2023-08-31T02:58:13;20.70;99.90
46159;DHT22;31888;44.512;26.104;2023-08-31T03:00:37;20.70;99.90
46159;DHT22;31888;44.512;26.104;2023-08-31T03:03:05;20.70;99.90
46159;DHT22;31888;44.512;26.104;2023-08-31T03:05:30;20.70;99.90
46159;DHT22;31888;44.512;26.104;2023-08-31T03:07:54;20.50;99.90
46159;DHT22;31888;44.512;26.104;2023-08-31T03:10:21;20.50;99.90
46159;DHT22;31888;44.512;26.104;2023-08-31T03:12:45;20.40;99.90
46159;DHT22;31888;44.512;26.104;2023-08-31T03:15:11;20.40;99.90
46159;DHT22;31888;44.512;26.104;2023-08-31T03:17:34;20.40;99.90
46159;DHT22;31888;44.512;26.104;2023-08-31T03:19:58;20.40;99.90
46159;DHT22;31888;44.512;26.104;2023-08-31T03:22:24;20.40;99.90
46159;DHT22;31888;44.512;26.104;2023-08-31T03:24:48;20.30;99.90
46159;DHT22;31888;44.512;26.104;2023-08-31T03:27:12;20.40;99.90
46159;DHT22;31888;44.512;26.104;2023-08-31T03:29:36;20.40;99.90
46159;DHT22;31888;44.512;26.104;2023-08-31T03:32:00;20.40;99.90
46159;DHT22;31888;44.512;26.104;2023-08-31T03:34:24;20.40;99.90
46159;DHT22;31888;44.512;26.104;2023-08-31T03:36:52;20.30;99.90
46159;DHT22;31888;44.512;26.104;2023-08-31T03:39:17;20.30;99.90
46159;DHT22;31888;44.512;26.104;2023-08-31T03:41:41;20.30;99.90
46159;DHT22;31888;44.512;26.104;2023-08-31T03:44:05;20.30;99.90
46159;DHT22;31888;44.512;26.104;2023-08-31T03:46:29;20.30;99.90
46159;DHT22;31888;44.512;26.104;2023-08-31T03:48:55;20.20;99.90
46159;DHT22;31888;44.512;26.104;2023-08-31T03:51:19;20.20;99.90
46159;DHT22;31888;44.512;26.104;2023-08-31T03:53:42;20.30;99.90
46159;DHT22;31888;44.512;26.104;2023-08-31T03:56:08;20.40;99.90
46159;DHT22;31888;44.512;26.104;2023-08-31T03:58:32;20.40;99.90
46159;DHT22;31888;44.512;26.104;2023-08-31T04:00:56;20.40;99.90
46159;DHT22;31888;44.512;26.104;2023-08-31T04:03:20;20.60;99.90
46159;DHT22;31888;44.512;26.104;2023-08-31T04:05:44;20.60;99.90
46159;DHT22;31888;44.512;26.104;2023-08-31T04:08:09;20.70;99.90
46159;DHT22;31888;44.512;26.104;2023-08-31T04:10:32;20.90;99.90
46159;DHT22;31888;44.512;26.104;2023-08-31T04:12:58;21.00;99.90
46159;DHT22;31888;44.512;26.104;2023-08-31T04:15:23;21.20;99.90
46159;DHT22;31888;44.512;26.104;2023-08-31T04:17:47;21.50;99.90
46159;DHT22;31888;44.512;26.104;2023-08-31T04:20:12;21.70;99.90
46159;DHT22;31888;44.512;26.104;2023-08-31T04:22:36;21.70;99.90
46159;DHT22;31888;44.512;26.104;2023-08-31T04:25:00;22.00;99.90
46159;DHT22;31888;44.512;26.104;2023-08-31T04:27:25;22.20;99.90
46159;DHT22;31888;44.512;26.104;2023-08-31T04:29:51;22.30;99.90
46159;DHT22;31888;44.512;26.104;2023-08-31T04:32:15;22.10;99.90
46159;DHT22;31888;44.512;26.104;2023-08-31T04:34:39;22.20;99.90
46159;DHT22;31888;44.512;26.104;2023-08-31T04:37:06;22.60;99.90
46159;DHT22;31888;44.512;26.104;2023-08-31T04:39:30;22.70;99.90
46159;DHT22;31888;44.512;26.104;2023-08-31T04:41:54;22.90;99.90
46159;DHT22;31888;44.512;26.104;2023-08-31T04:44:18;23.00;99.90
46159;DHT22;31888;44.512;26.104;2023-08-31T04:46:44;23.10;99.90
46159;DHT22;31888;44.512;26.104;2023-08-31T04:49:08;23.50;99.90
46159;DHT22;31888;44.512;26.104;2023-08-31T04:51:33;23.80;99.90
46159;DHT22;31888;44.512;26.104;2023-08-31T04:54:01;24.30;99.90
46159;DHT22;31888;44.512;26.104;2023-08-31T04:56:28;24.50;99.90
46159;DHT22;31888;44.512;26.104;2023-08-31T04:58:52;24.30;99.90
46159;DHT22;31888;44.512;26.104;2023-08-31T05:01:16;24.40;99.90
46159;DHT22;31888;44.512;26.104;2023-08-31T05:03:41;24.20;99.90
46159;DHT22;31888;44.512;26.104;2023-08-31T05:06:05;24.40;99.90
46159;DHT22;31888;44.512;26.104;2023-08-31T05:08:30;25.10;99.90
46159;DHT22;31888;44.512;26.104;2023-08-31T05:10:54;25.70;99.90
46159;DHT22;31888;44.512;26.104;2023-08-31T05:13:17;25.40;99.90
46159;DHT22;31888;44.512;26.104;2023-08-31T05:15:41;25.20;99.90
46159;DHT22;31888;44.512;26.104;2023-08-31T05:18:05;25.20;99.90
46159;DHT22;31888;44.512;26.104;2023-08-31T05:20:32;25.00;99.90
46159;DHT22;31888;44.512;26.104;2023-08-31T05:22:56;25.10;99.90
46159;DHT22;31888;44.512;26.104;2023-08-31T05:25:20;25.70;99.90
46159;DHT22;31888;44.512;26.104;2023-08-31T05:27:44;26.30;99.90
46159;DHT22;31888;44.512;26.104;2023-08-31T05:30:08;26.50;99.90
46159;DHT22;31888;44.512;26.104;2023-08-31T05:32:32;27.00;99.90
46159;DHT22;31888;44.512;26.104;2023-08-31T05:34:56;27.80;99.90
46159;DHT22;31888;44.512;26.104;2023-08-31T05:37:23;28.90;99.50
46159;DHT22;31888;44.512;26.104;2023-08-31T05:39:48;29.40;98.00
46159;DHT22;31888;44.512;26.104;2023-08-31T05:42:12;30.20;96.40
46159;DHT22;31888;44.512;26.104;2023-08-31T05:44:36;30.70;95.10
46159;DHT22;31888;44.512;26.104;2023-08-31T05:47:00;30.90;94.50
46159;DHT22;31888;44.512;26.104;2023-08-31T05:49:24;31.40;93.80
46159;DHT22;31888;44.512;26.104;2023-08-31T05:51:49;32.00;93.20
46159;DHT22;31888;44.512;26.104;2023-08-31T05:54:15;32.50;92.20
46159;DHT22;31888;44.512;26.104;2023-08-31T05:56:39;32.60;91.50
46159;DHT22;31888;44.512;26.104;2023-08-31T05:59:03;32.60;91.00
46159;DHT22;31888;44.512;26.104;2023-08-31T06:01:27;33.30;90.70
46159;DHT22;31888;44.512;26.104;2023-08-31T06:03:51;33.90;89.20
46159;DHT22;31888;44.512;26.104;2023-08-31T06:06:15;34.10;87.70
46159;DHT22;31888;44.512;26.104;2023-08-31T06:08:39;35.40;85.40
46159;DHT22;31888;44.512;26.104;2023-08-31T06:11:06;35.20;83.30
46159;DHT22;31888;44.512;26.104;2023-08-31T06:13:30;35.70;82.10
46159;DHT22;31888;44.512;26.104;2023-08-31T06:15:54;36.20;81.10
46159;DHT22;31888;44.512;26.104;2023-08-31T06:18:20;37.20;79.00
46159;DHT22;31888;44.512;26.104;2023-08-31T06:20:44;37.60;77.00
46159;DHT22;31888;44.512;26.104;2023-08-31T06:23:10;37.90;75.80
46159;DHT22;31888;44.512;26.104;2023-08-31T06:25:35;38.30;74.90
46159;DHT22;31888;44.512;26.104;2023-08-31T06:28:00;38.40;73.80
46159;DHT22;31888;44.512;26.104;2023-08-31T06:30:25;38.60;73.50
46159;DHT22;31888;44.512;26.104;2023-08-31T06:32:49;39.20;72.30
46159;DHT22;31888;44.512;26.104;2023-08-31T06:35:14;39.50;70.80
46159;DHT22;31888;44.512;26.104;2023-08-31T06:37:40;39.20;71.20
46159;DHT22;31888;44.512;26.104;2023-08-31T06:40:05;39.20;70.90
46159;DHT22;31888;44.512;26.104;2023-08-31T06:42:30;38.50;71.10
46159;DHT22;31888;44.512;26.104;2023-08-31T06:44:56;37.40;72.20
46159;DHT22;31888;44.512;26.104;2023-08-31T06:47:20;36.00;74.30
46159;DHT22;31888;44.512;26.104;2023-08-31T06:49:43;35.40;76.10
46159;DHT22;31888;44.512;26.104;2023-08-31T06:52:07;35.00;77.00
46159;DHT22;31888;44.512;26.104;2023-08-31T06:54:51;34.60;77.60
46159;DHT22;31888;44.512;26.104;2023-08-31T06:57:17;34.50;78.10
46159;DHT22;31888;44.512;26.104;2023-08-31T06:59:41;34.60;78.20
46159;DHT22;31888;44.512;26.104;2023-08-31T07:02:08;34.70;78.30
46159;DHT22;31888;44.512;26.104;2023-08-31T07:04:32;35.70;76.70
46159;DHT22;31888;44.512;26.104;2023-08-31T07:06:56;35.60;76.20
46159;DHT22;31888;44.512;26.104;2023-08-31T07:09:20;35.40;76.50
46159;DHT22;31888;44.512;26.104;2023-08-31T07:11:44;35.70;76.40
46159;DHT22;31888;44.512;26.104;2023-08-31T07:14:08;36.30;75.60
46159;DHT22;31888;44.512;26.104;2023-08-31T07:16:32;36.60;75.10
46159;DHT22;31888;44.512;26.104;2023-08-31T07:18:58;37.70;72.70
46159;DHT22;31888;44.512;26.104;2023-08-31T07:21:23;38.00;71.30
46159;DHT22;31888;44.512;26.104;2023-08-31T07:23:46;38.40;70.80
46159;DHT22;31888;44.512;26.104;2023-08-31T07:26:11;39.10;69.70
46159;DHT22;31888;44.512;26.104;2023-08-31T07:28:35;39.80;68.20
46159;DHT22;31888;44.512;26.104;2023-08-31T07:31:02;40.40;66.90
46159;DHT22;31888;44.512;26.104;2023-08-31T07:33:27;40.40;66.10
46159;DHT22;31888;44.512;26.104;2023-08-31T07:35:54;41.20;64.90
46159;DHT22;31888;44.512;26.104;2023-08-31T07:38:20;41.60;63.80
46159;DHT22;31888;44.512;26.104;2023-08-31T07:40:44;42.00;63.10
46159;DHT22;31888;44.512;26.104;2023-08-31T07:43:08;42.60;62.20
46159;DHT22;31888;44.512;26.104;2023-08-31T07:45:32;42.80;61.10
46159;DHT22;31888;44.512;26.104;2023-08-31T07:47:56;43.30;60.70
46159;DHT22;31888;44.512;26.104;2023-08-31T07:50:20;43.40;59.70
46159;DHT22;31888;44.512;26.104;2023-08-31T07:52:46;43.40;59.40
46159;DHT22;31888;44.512;26.104;2023-08-31T07:55:10;43.90;59.30
46159;DHT22;31888;44.512;26.104;2023-08-31T07:57:34;44.40;58.70
46159;DHT22;31888;44.512;26.104;2023-08-31T07:59:57;44.20;58.30
46159;DHT22;31888;44.512;26.104;2023-08-31T08:02:33;44.10;58.70
46159;DHT22;31888;44.512;26.104;2023-08-31T08:04:58;43.90;57.70
46159;DHT22;31888;44.512;26.104;2023-08-31T08:07:25;43.60;58.00
46159;DHT22;31888;44.512;26.104;2023-08-31T08:09:51;43.10;58.00
46159;DHT22;31888;44.512;26.104;2023-08-31T08:12:16;43.50;57.60
46159;DHT22;31888;44.512;26.104;2023-08-31T08:14:42;43.90;57.20
46159;DHT22;31888;44.512;26.104;2023-08-31T08:17:06;44.40;56.60
46159;DHT22;31888;44.512;26.104;2023-08-31T08:19:30;44.40;56.20
46159;DHT22;31888;44.512;26.104;2023-08-31T08:21:56;44.40;55.70
46159;DHT22;31888;44.512;26.104;2023-08-31T08:24:24;44.10;55.10
46159;DHT22;31888;44.512;26.104;2023-08-31T08:26:50;43.60;55.90
46159;DHT22;31888;44.512;26.104;2023-08-31T08:29:14;43.00;56.10
46159;DHT22;31888;44.512;26.104;2023-08-31T08:31:38;42.50;57.00
46159;DHT22;31888;44.512;26.104;2023-08-31T08:34:02;41.90;56.70
46159;DHT22;31888;44.512;26.104;2023-08-31T08:36:29;40.90;57.10
46159;DHT22;31888;44.512;26.104;2023-08-31T08:38:53;40.20;58.40
46159;DHT22;31888;44.512;26.104;2023-08-31T08:41:19;39.60;59.50
46159;DHT22;31888;44.512;26.104;2023-08-31T08:43:48;38.70;60.00
46159;DHT22;31888;44.512;26.104;2023-08-31T08:46:16;37.70;61.60
46159;DHT22;31888;44.512;26.104;2023-08-31T08:48:41;37.10;62.70
46159;DHT22;31888;44.512;26.104;2023-08-31T08:51:06;36.80;62.80
46159;DHT22;31888;44.512;26.104;2023-08-31T08:53:31;36.20;63.80
46159;DHT22;31888;44.512;26.104;2023-08-31T08:55:55;35.90;64.70
46159;DHT22;31888;44.512;26.104;2023-08-31T08:58:19;35.30;65.80
46159;DHT22;31888;44.512;26.104;2023-08-31T09:00:46;35.20;65.90
46159;DHT22;31888;44.512;26.104;2023-08-31T09:03:14;34.90;66.00
46159;DHT22;31888;44.512;26.104;2023-08-31T09:05:39;34.60;65.80
46159;DHT22;31888;44.512;26.104;2023-08-31T09:08:04;34.60;65.80
46159;DHT22;31888;44.512;26.104;2023-08-31T09:10:42;34.40;66.60
46159;DHT22;31888;44.512;26.104;2023-08-31T09:13:07;34.10;67.50
46159;DHT22;31888;44.512;26.104;2023-08-31T09:15:41;34.00;68.00
46159;DHT22;31888;44.512;26.104;2023-08-31T09:18:14;34.10;68.10
46159;DHT22;31888;44.512;26.104;2023-08-31T09:20:46;34.10;67.20
46159;DHT22;31888;44.512;26.104;2023-08-31T09:23:17;34.10;68.00
46159;DHT22;31888;44.512;26.104;2023-08-31T09:25:42;33.80;68.50
46159;DHT22;31888;44.512;26.104;2023-08-31T09:28:06;33.50;68.90
46159;DHT22;31888;44.512;26.104;2023-08-31T09:30:35;33.10;69.50
46159;DHT22;31888;44.512;26.104;2023-08-31T09:32:59;33.40;68.30
46159;DHT22;31888;44.512;26.104;2023-08-31T09:35:24;33.40;67.60
46159;DHT22;31888;44.512;26.104;2023-08-31T09:37:55;33.50;67.50
46159;DHT22;31888;44.512;26.104;2023-08-31T09:40:20;33.40;67.30
46159;DHT22;31888;44.512;26.104;2023-08-31T09:42:44;33.60;66.70
46159;DHT22;31888;44.512;26.104;2023-08-31T09:45:08;33.60;65.80
46159;DHT22;31888;44.512;26.104;2023-08-31T09:47:33;33.60;65.50
46159;DHT22;31888;44.512;26.104;2023-08-31T09:49:58;33.70;65.20
46159;DHT22;31888;44.512;26.104;2023-08-31T09:52:28;33.80;64.60
46159;DHT22;31888;44.512;26.104;2023-08-31T09:54:53;33.90;63.60
46159;DHT22;31888;44.512;26.104;2023-08-31T09:57:18;33.90;66.00
46159;DHT22;31888;44.512;26.104;2023-08-31T10:00:01;33.90;65.50
46159;DHT22;31888;44.512;26.104;2023-08-31T10:02:27;33.90;65.20
46159;DHT22;31888;44.512;26.104;2023-08-31T10:04:54;33.90;63.90
46159;DHT22;31888;44.512;26.104;2023-08-31T10:07:20;33.90;61.40
46159;DHT22;31888;44.512;26.104;2023-08-31T10:09:47;33.80;62.40
46159;DHT22;31888;44.512;26.104;2023-08-31T10:12:12;33.70;63.40
46159;DHT22;31888;44.512;26.104;2023-08-31T10:14:38;33.70;62.40
46159;DHT22;31888;44.512;26.104;2023-08-31T10:17:02;33.90;61.30
46159;DHT22;31888;44.512;26.104;2023-08-31T10:19:27;34.00;61.00
46159;DHT22;31888;44.512;26.104;2023-08-31T10:21:51;34.00;61.50
46159;DHT22;31888;44.512;26.104;2023-08-31T10:24:15;34.00;61.70
46159;DHT22;31888;44.512;26.104;2023-08-31T10:26:41;34.00;60.90
46159;DHT22;31888;44.512;26.104;2023-08-31T10:29:05;33.90;61.00
46159;DHT22;31888;44.512;26.104;2023-08-31T10:31:30;34.00;61.50
46159;DHT22;31888;44.512;26.104;2023-08-31T10:33:56;34.10;61.40
46159;DHT22;31888;44.512;26.104;2023-08-31T10:36:21;34.00;60.90
46159;DHT22;31888;44.512;26.104;2023-08-31T10:38:46;34.00;61.20
46159;DHT22;31888;44.512;26.104;2023-08-31T10:41:21;33.90;60.60
46159;DHT22;31888;44.512;26.104;2023-08-31T10:43:52;33.90;61.80
46159;DHT22;31888;44.512;26.104;2023-08-31T10:46:18;33.80;61.50
46159;DHT22;31888;44.512;26.104;2023-08-31T10:48:52;33.80;61.80
46159;DHT22;31888;44.512;26.104;2023-08-31T10:51:17;33.80;61.50
46159;DHT22;31888;44.512;26.104;2023-08-31T10:53:43;33.80;60.80
46159;DHT22;31888;44.512;26.104;2023-08-31T10:56:15;33.70;60.80
46159;DHT22;31888;44.512;26.104;2023-08-31T10:58:40;33.60;61.70
46159;DHT22;31888;44.512;26.104;2023-08-31T11:01:07;33.60;62.10
46159;DHT22;31888;44.512;26.104;2023-08-31T11:03:32;33.70;62.00
46159;DHT22;31888;44.512;26.104;2023-08-31T11:05:57;33.90;61.20
46159;DHT22;31888;44.512;26.104;2023-08-31T11:08:26;34.20;60.90
46159;DHT22;31888;44.512;26.104;2023-08-31T11:10:51;34.30;60.80
46159;DHT22;31888;44.512;26.104;2023-08-31T11:13:19;34.30;60.30
46159;DHT22;31888;44.512;26.104;2023-08-31T11:15:47;34.30;60.40
46159;DHT22;31888;44.512;26.104;2023-08-31T11:18:15;34.30;61.20
46159;DHT22;31888;44.512;26.104;2023-08-31T11:20:41;34.30;60.50
46159;DHT22;31888;44.512;26.104;2023-08-31T11:23:08;34.10;60.80
46159;DHT22;31888;44.512;26.104;2023-08-31T11:25:34;34.10;61.40
46159;DHT22;31888;44.512;26.104;2023-08-31T11:28:00;33.80;60.80
46159;DHT22;31888;44.512;26.104;2023-08-31T11:30:27;33.70;61.40
46159;DHT22;31888;44.512;26.104;2023-08-31T11:32:54;33.50;61.50
46159;DHT22;31888;44.512;26.104;2023-08-31T11:35:20;33.40;61.90
46159;DHT22;31888;44.512;26.104;2023-08-31T11:37:49;33.50;62.20
46159;DHT22;31888;44.512;26.104;2023-08-31T11:40:13;33.40;62.70
46159;DHT22;31888;44.512;26.104;2023-08-31T11:42:38;33.40;62.70
46159;DHT22;31888;44.512;26.104;2023-08-31T11:45:05;33.60;62.50
46159;DHT22;31888;44.512;26.104;2023-08-31T11:47:30;33.60;61.40
46159;DHT22;31888;44.512;26.104;2023-08-31T11:49:55;33.50;60.90
46159;DHT22;31888;44.512;26.104;2023-08-31T11:52:20;33.50;61.20
46159;DHT22;31888;44.512;26.104;2023-08-31T11:54:44;33.40;61.40
46159;DHT22;31888;44.512;26.104;2023-08-31T11:57:10;33.30;61.60
46159;DHT22;31888;44.512;26.104;2023-08-31T11:59:34;33.20;61.40
46159;DHT22;31888;44.512;26.104;2023-08-31T12:01:59;33.30;60.80
46159;DHT22;31888;44.512;26.104;2023-08-31T12:04:24;33.30;61.10
46159;DHT22;31888;44.512;26.104;2023-08-31T12:06:50;33.30;61.10
46159;DHT22;31888;44.512;26.104;2023-08-31T12:09:15;33.40;61.40
46159;DHT22;31888;44.512;26.104;2023-08-31T12:11:39;33.50;61.60
46159;DHT22;31888;44.512;26.104;2023-08-31T12:14:17;33.50;61.20
46159;DHT22;31888;44.512;26.104;2023-08-31T12:16:41;33.60;60.70
46159;DHT22;31888;44.512;26.104;2023-08-31T12:19:05;33.50;60.00
46159;DHT22;31888;44.512;26.104;2023-08-31T12:21:30;33.40;59.60
46159;DHT22;31888;44.512;26.104;2023-08-31T12:23:54;33.30;59.60
46159;DHT22;31888;44.512;26.104;2023-08-31T12:26:19;33.30;59.60
46159;DHT22;31888;44.512;26.104;2023-08-31T12:28:44;33.10;59.40
46159;DHT22;31888;44.512;26.104;2023-08-31T12:31:07;33.20;59.70
46159;DHT22;31888;44.512;26.104;2023-08-31T12:33:31;33.20;59.00
46159;DHT22;31888;44.512;26.104;2023-08-31T12:35:55;33.10;59.70
46159;DHT22;31888;44.512;26.104;2023-08-31T12:38:19;33.20;59.70
46159;DHT22;31888;44.512;26.104;2023-08-31T12:40:44;33.30;60.10
46159;DHT22;31888;44.512;26.104;2023-08-31T12:43:10;33.10;59.40
46159;DHT22;31888;44.512;26.104;2023-08-31T12:45:35;33.20;59.20
46159;DHT22;31888;44.512;26.104;2023-08-31T12:47:59;33.10;58.90
46159;DHT22;31888;44.512;26.104;2023-08-31T12:50:23;33.10;59.30
46159;DHT22;31888;44.512;26.104;2023-08-31T12:52:47;33.10;57.70
46159;DHT22;31888;44.512;26.104;2023-08-31T12:55:12;33.20;57.50
46159;DHT22;31888;44.512;26.104;2023-08-31T12:57:36;33.20;58.20
46159;DHT22;31888;44.512;26.104;2023-08-31T13:00:02;33.30;58.30
46159;DHT22;31888;44.512;26.104;2023-08-31T13:02:27;33.30;58.10
46159;DHT22;31888;44.512;26.104;2023-08-31T13:04:51;33.40;59.10
46159;DHT22;31888;44.512;26.104;2023-08-31T13:07:15;33.40;58.70
46159;DHT22;31888;44.512;26.104;2023-08-31T13:09:39;33.40;58.40
46159;DHT22;31888;44.512;26.104;2023-08-31T13:12:04;33.40;58.70
46159;DHT22;31888;44.512;26.104;2023-08-31T13:14:28;33.40;58.50
46159;DHT22;31888;44.512;26.104;2023-08-31T13:16:53;33.50;58.80
46159;DHT22;31888;44.512;26.104;2023-08-31T13:19:18;33.40;57.80
46159;DHT22;31888;44.512;26.104;2023-08-31T13:21:42;33.30;58.00
46159;DHT22;31888;44.512;26.104;2023-08-31T13:24:08;33.30;57.60
46159;DHT22;31888;44.512;26.104;2023-08-31T13:26:32;33.10;57.80
46159;DHT22;31888;44.512;26.104;2023-08-31T13:28:56;33.00;58.00
46159;DHT22;31888;44.512;26.104;2023-08-31T13:31:20;32.90;58.10
46159;DHT22;31888;44.512;26.104;2023-08-31T13:33:46;32.90;58.10
46159;DHT22;31888;44.512;26.104;2023-08-31T13:36:10;32.70;58.30
46159;DHT22;31888;44.512;26.104;2023-08-31T13:38:34;32.60;58.30
46159;DHT22;31888;44.512;26.104;2023-08-31T13:41:00;32.50;58.30
46159;DHT22;31888;44.512;26.104;2023-08-31T13:43:26;32.50;58.70
46159;DHT22;31888;44.512;26.104;2023-08-31T13:45:50;32.50;58.20
46159;DHT22;31888;44.512;26.104;2023-08-31T13:48:14;32.60;57.70
46159;DHT22;31888;44.512;26.104;2023-08-31T13:50:42;32.50;57.20
46159;DHT22;31888;44.512;26.104;2023-08-31T13:53:07;32.50;57.70
46159;DHT22;31888;44.512;26.104;2023-08-31T13:55:30;32.40;57.30
46159;DHT22;31888;44.512;26.104;2023-08-31T13:58:02;32.50;57.40
46159;DHT22;31888;44.512;26.104;2023-08-31T14:00:27;32.60;57.80
46159;DHT22;31888;44.512;26.104;2023-08-31T14:02:54;32.50;57.10
46159;DHT22;31888;44.512;26.104;2023-08-31T14:05:21;32.50;57.80
46159;DHT22;31888;44.512;26.104;2023-08-31T14:07:46;32.50;57.40
46159;DHT22;31888;44.512;26.104;2023-08-31T14:10:10;32.50;57.40
46159;DHT22;31888;44.512;26.104;2023-08-31T14:12:34;32.40;57.20
46159;DHT22;31888;44.512;26.104;2023-08-31T14:14:58;32.40;58.00
46159;DHT22;31888;44.512;26.104;2023-08-31T14:17:23;32.40;57.60
46159;DHT22;31888;44.512;26.104;2023-08-31T14:19:47;32.40;57.30
46159;DHT22;31888;44.512;26.104;2023-08-31T14:22:11;32.30;57.20
46159;DHT22;31888;44.512;26.104;2023-08-31T14:24:37;32.30;57.70
46159;DHT22;31888;44.512;26.104;2023-08-31T14:27:01;32.30;57.70
46159;DHT22;31888;44.512;26.104;2023-08-31T14:29:25;32.20;57.70
46159;DHT22;31888;44.512;26.104;2023-08-31T14:31:48;32.20;57.70
46159;DHT22;31888;44.512;26.104;2023-08-31T14:34:13;32.00;57.80
46159;DHT22;31888;44.512;26.104;2023-08-31T14:36:38;32.00;58.40
46159;DHT22;31888;44.512;26.104;2023-08-31T14:39:02;31.90;57.70
46159;DHT22;31888;44.512;26.104;2023-08-31T14:41:29;31.80;58.10
46159;DHT22;31888;44.512;26.104;2023-08-31T14:43:53;31.80;57.90
46159;DHT22;31888;44.512;26.104;2023-08-31T14:46:17;31.80;58.20
46159;DHT22;31888;44.512;26.104;2023-08-31T14:48:41;31.70;57.40
46159;DHT22;31888;44.512;26.104;2023-08-31T14:51:06;31.70;57.90
46159;DHT22;31888;44.512;26.104;2023-08-31T14:53:31;31.70;57.60
46159;DHT22;31888;44.512;26.104;2023-08-31T14:55:55;31.60;58.10
46159;DHT22;31888;44.512;26.104;2023-08-31T14:58:21;31.50;57.90
46159;DHT22;31888;44.512;26.104;2023-08-31T15:00:45;31.40;58.10
46159;DHT22;31888;44.512;26.104;2023-08-31T15:03:09;31.40;58.00
46159;DHT22;31888;44.512;26.104;2023-08-31T15:05:35;31.40;57.40